Time;durP1;ratioP1;P1;durP2;ratioP2;P2;SDS_P1;SDS_P2;PMS_P1;PMS_P2;Temp;Humidity;BMP_temperature;BMP_pressure;BME280_temperature;BME280_humidity;BME280_pressure;Samples;Min_cycle;Max_cycle;Signal;HPM_P1;HPM_P2
2022/12/30 00:00:50;;;;;;;10.93;2.05;;;;;;;;;;5033415;28;20041;-77
2022/12/30 00:03:16;;;;;;;13.57;2.03;;;;;;;;;;5014716;28;20503;-77
2022/12/30 00:05:43;;;;;;;16.48;1.98;;;;;;;;;;5033001;28;20021;-77
2022/12/30 00:08:45;;;;;;;11.40;1.60;;;;;;;;;;5033309;28;20029;-77
2022/12/30 00:10:55;;;;;;;15.75;2.10;;;;;;;;;;5032883;28;20052;-77
2022/12/30 00:35:21;;;;;;;15.77;1.80;;;;;;;;;;5036436;28;20033;-77
2022/12/30 00:37:47;;;;;;;15.32;3.13;;;;;;;;;;5036364;28;20029;-77
2022/12/30 00:40:13;;;;;;;13.43;1.98;;;;;;;;;;5036606;28;20032;-77
2022/12/30 00:45:24;;;;;;;14.27;1.52;;;;;;;;;;5036465;28;20028;-77
2022/12/30 00:47:51;;;;;;;18.83;2.15;;;;;;;;;;5036286;28;20464;-77
2022/12/30 00:58:30;;;;;;;7.53;2.05;;;;;;;;;;5035788;28;20156;-77
2022/12/30 01:00:56;;;;;;;13.45;1.73;;;;;;;;;;5035989;28;20108;-77
2022/12/30 01:03:22;;;;;;;13.75;1.52;;;;;;;;;;5036092;28;20033;-77
2022/12/30 01:05:48;;;;;;;11.68;1.35;;;;;;;;;;5035823;28;20369;-77
2022/12/30 01:08:14;;;;;;;14.57;2.17;;;;;;;;;;5036017;28;20032;-77
2022/12/30 01:10:40;;;;;;;18.17;2.17;;;;;;;;;;5035646;28;20101;-77
2022/12/30 01:13:07;;;;;;;17.25;1.95;;;;;;;;;;5035691;28;20479;-77
2022/12/30 01:15:33;;;;;;;18.65;1.85;;;;;;;;;;5018080;28;20083;-77
2022/12/30 01:17:59;;;;;;;16.02;2.10;;;;;;;;;;5035907;28;20075;-77
2022/12/30 01:20:25;;;;;;;16.48;2.40;;;;;;;;;;5035642;28;20021;-77
2022/12/30 01:22:51;;;;;;;14.25;1.70;;;;;;;;;;5035594;28;20461;-77
2022/12/30 01:25:17;;;;;;;17.52;1.95;;;;;;;;;;5035234;28;20113;-77
2022/12/30 01:27:43;;;;;;;11.82;1.55;;;;;;;;;;5035756;28;20029;-77
2022/12/30 01:30:09;;;;;;;13.30;2.13;;;;;;;;;;5034344;28;20048;-77
2022/12/30 01:32:36;;;;;;;15.25;2.45;;;;;;;;;;5035505;28;20032;-77
2022/12/30 01:35:03;;;;;;;10.75;1.88;;;;;;;;;;5035496;28;20373;-77
2022/12/30 01:37:29;;;;;;;19.80;2.20;;;;;;;;;;5035093;28;20033;-77
2022/12/30 01:39:55;;;;;;;22.98;2.75;;;;;;;;;;5035154;28;20033;-76
2022/12/30 01:42:22;;;;;;;17.98;2.60;;;;;;;;;;5035470;28;20381;-77
2022/12/30 01:44:51;;;;;;;16.95;1.95;;;;;;;;;;5017369;28;20460;-77
2022/12/30 01:47:23;;;;;;;15.20;2.13;;;;;;;;;;5035279;28;20487;-77
2022/12/30 01:49:51;;;;;;;11.88;1.48;;;;;;;;;;5034887;28;20036;-77
2022/12/30 01:52:18;;;;;;;17.40;2.08;;;;;;;;;;5035285;28;20540;-77
2022/12/30 01:54:44;;;;;;;12.55;1.80;;;;;;;;;;5017173;28;20041;-77
2022/12/30 01:57:10;;;;;;;17.02;2.60;;;;;;;;;;5017202;28;20045;-77
2022/12/30 01:59:37;;;;;;;14.15;2.05;;;;;;;;;;5034739;28;20479;-77
2022/12/30 02:02:03;;;;;;;16.13;2.63;;;;;;;;;;5034826;28;20018;-77
2022/12/30 02:04:29;;;;;;;18.92;2.58;;;;;;;;;;5034858;28;20049;-77
2022/12/30 02:06:59;;;;;;;19.55;2.55;;;;;;;;;;5034749;28;20032;-77
2022/12/30 02:09:30;;;;;;;15.38;2.35;;;;;;;;;;5034909;28;20029;-77
2022/12/30 02:12:01;;;;;;;;;;;;;;;;;;5035153;28;20028;-77
2022/12/30 02:14:29;;;;;;;23.48;2.88;;;;;;;;;;5034873;28;19905;-77
2022/12/30 02:17:00;;;;;;;13.65;2.88;;;;;;;;;;5034484;28;20025;-77
2022/12/30 02:19:45;;;;;;;19.50;3.08;;;;;;;;;;5034407;28;20029;-77
2022/12/30 02:22:11;;;;;;;16.55;2.58;;;;;;;;;;5034427;28;20025;-77
2022/12/30 02:24:37;;;;;;;11.98;2.08;;;;;;;;;;5034326;28;20452;-77
2022/12/30 02:27:09;;;;;;;15.85;2.33;;;;;;;;;;5034327;28;20472;-77
2022/12/30 02:29:47;;;;;;;14.27;2.08;;;;;;;;;;5034368;28;20033;-77
2022/12/30 02:32:26;;;;;;;13.18;1.80;;;;;;;;;;5034476;28;20060;-77
2022/12/30 02:34:52;;;;;;;20.35;2.15;;;;;;;;;;5034078;28;20086;-77
2022/12/30 02:37:25;;;;;;;17.50;2.15;;;;;;;;;;5034197;28;20108;-77
2022/12/30 02:39:54;;;;;;;17.50;2.13;;;;;;;;;;5034371;28;20033;-77
2022/12/30 02:45:17;;;;;;;11.05;2.78;;;;;;;;;;5034332;28;20056;-77
2022/12/30 02:48:02;;;;;;;11.10;2.13;;;;;;;;;;5016324;28;20025;-77
2022/12/30 02:53:17;;;;;;;13.40;2.20;;;;;;;;;;5033886;28;20036;-77
2022/12/30 02:55:43;;;;;;;12.48;1.80;;;;;;;;;;5028629;28;20104;-77
2022/12/30 02:58:09;;;;;;;13.07;1.95;;;;;;;;;;5014185;28;20105;-77
2022/12/30 03:03:58;;;;;;;14.55;2.03;;;;;;;;;;5014198;28;20037;-77
2022/12/30 03:06:29;;;;;;;17.20;2.25;;;;;;;;;;5014148;28;20354;-77
2022/12/30 03:09:14;;;;;;;13.15;2.00;;;;;;;;;;5014195;28;20025;-77
2022/12/30 03:11:54;;;;;;;12.50;2.38;;;;;;;;;;5014046;28;20037;-77
2022/12/30 03:14:50;;;;;;;11.48;2.20;;;;;;;;;;5013819;28;20113;-77
2022/12/30 03:17:19;;;;;;;12.75;2.17;;;;;;;;;;4997415;28;20177;-77
2022/12/30 03:19:47;;;;;;;15.32;2.65;;;;;;;;;;5014068;28;20026;-77
2022/12/30 03:27:44;;;;;;;14.02;2.97;;;;;;;;;;5033909;28;20082;-77
2022/12/30 03:30:11;;;;;;;15.60;2.33;;;;;;;;;;5033425;28;20029;-77
2022/12/30 03:32:37;;;;;;;23.10;2.78;;;;;;;;;;5033400;28;20026;-77
2022/12/30 03:35:03;;;;;;;16.08;2.55;;;;;;;;;;5033512;28;20473;-77
2022/12/30 03:37:33;;;;;;;10.48;2.63;;;;;;;;;;5033469;28;20489;-77
2022/12/30 03:40:09;;;;;;;13.95;1.65;;;;;;;;;;5033596;28;20052;-77
2022/12/30 03:42:35;;;;;;;15.00;2.10;;;;;;;;;;5033452;28;20029;-77
2022/12/30 03:45:02;;;;;;;15.52;1.95;;;;;;;;;;5033915;28;20044;-77
2022/12/30 03:47:28;;;;;;;17.30;2.83;;;;;;;;;;5033005;28;20030;-77
2022/12/30 03:49:54;;;;;;;19.00;2.72;;;;;;;;;;5033215;28;20029;-76
2022/12/30 03:52:21;;;;;;;17.25;2.70;;;;;;;;;;5033736;28;20372;-77
2022/12/30 03:54:50;;;;;;;11.80;3.05;;;;;;;;;;5036978;28;20021;-77
2022/12/30 03:57:16;;;;;;;19.13;3.33;;;;;;;;;;5037476;28;20027;-77
2022/12/30 03:59:42;;;;;;;13.38;2.85;;;;;;;;;;5037093;28;20057;-77
2022/12/30 04:02:09;;;;;;;21.63;3.63;;;;;;;;;;5037054;28;20507;-77
2022/12/30 04:04:35;;;;;;;17.08;2.50;;;;;;;;;;5037071;28;20440;-77
2022/12/30 04:07:07;;;;;;;12.25;2.95;;;;;;;;;;5037112;28;20029;-76
2022/12/30 04:09:33;;;;;;;18.40;3.00;;;;;;;;;;5036945;28;20060;-77
2022/12/30 04:11:59;;;;;;;13.77;3.63;;;;;;;;;;5036995;28;20053;-77
2022/12/30 04:14:25;;;;;;;19.95;3.15;;;;;;;;;;5036892;28;20025;-77
2022/12/30 04:16:51;;;;;;;16.75;3.67;;;;;;;;;;5036968;28;20037;-76
2022/12/30 04:19:16;;;;;;;10.32;3.33;;;;;;;;;;5036726;28;20124;-77
2022/12/30 04:21:42;;;;;;;11.68;3.80;;;;;;;;;;5036923;28;20021;-77
2022/12/30 04:24:08;;;;;;;25.95;4.32;;;;;;;;;;5036703;28;20026;-77
2022/12/30 04:26:34;;;;;;;14.98;3.28;;;;;;;;;;5036623;28;20037;-77
2022/12/30 04:29:00;;;;;;;14.20;3.75;;;;;;;;;;5036651;28;20025;-77
2022/12/30 04:31:26;;;;;;;15.93;4.05;;;;;;;;;;5036884;28;20452;-77
2022/12/30 04:33:53;;;;;;;12.75;3.47;;;;;;;;;;5036498;28;20034;-77
2022/12/30 04:36:20;;;;;;;18.63;3.38;;;;;;;;;;5036497;28;20037;-77
2022/12/30 04:38:46;;;;;;;17.67;4.22;;;;;;;;;;5036259;28;20078;-77
2022/12/30 04:41:12;;;;;;;19.55;4.55;;;;;;;;;;5036537;28;20029;-76
2022/12/30 04:43:38;;;;;;;14.15;4.07;;;;;;;;;;5036381;28;20072;-76
2022/12/30 04:46:04;;;;;;;16.88;5.57;;;;;;;;;;5036181;28;21029;-77
2022/12/30 04:48:30;;;;;;;20.67;5.22;;;;;;;;;;5036205;28;20025;-77
2022/12/30 04:50:56;;;;;;;16.40;5.53;;;;;;;;;;5036055;28;20365;-77
2022/12/30 04:53:22;;;;;;;16.77;4.97;;;;;;;;;;5036323;28;20032;-77
2022/12/30 04:55:56;;;;;;;23.10;5.88;;;;;;;;;;5036453;28;20456;-77
2022/12/30 04:58:22;;;;;;;18.42;6.22;;;;;;;;;;5036286;28;20456;-77
2022/12/30 05:00:49;;;;;;;24.05;6.60;;;;;;;;;;5036140;28;20096;-77
2022/12/30 05:03:15;;;;;;;14.25;6.03;;;;;;;;;;5035760;28;20364;-77
2022/12/30 05:05:41;;;;;;;22.42;5.72;;;;;;;;;;5034530;28;20373;-77
2022/12/30 05:08:07;;;;;;;14.73;3.67;;;;;;;;;;5036046;28;20478;-77
2022/12/30 05:10:33;;;;;;;19.40;3.83;;;;;;;;;;5035683;28;20033;-77
2022/12/30 05:12:59;;;;;;;16.60;4.43;;;;;;;;;;5036009;28;20029;-77
2022/12/30 05:15:25;;;;;;;25.25;6.88;;;;;;;;;;5035912;28;20029;-77
2022/12/30 05:17:51;;;;;;;18.42;5.22;;;;;;;;;;5035885;28;20025;-77
2022/12/30 05:20:18;;;;;;;16.83;5.38;;;;;;;;;;5035726;28;20064;-77
2022/12/30 05:22:44;;;;;;;13.93;3.78;;;;;;;;;;5018143;28;20043;-77
2022/12/30 05:27:54;;;;;;;12.35;3.40;;;;;;;;;;5035977;28;20384;-78
2022/12/30 05:30:20;;;;;;;17.15;4.00;;;;;;;;;;5035766;28;20465;-77
2022/12/30 05:32:46;;;;;;;18.52;3.58;;;;;;;;;;5035689;28;20025;-77
2022/12/30 05:35:12;;;;;;;13.65;2.95;;;;;;;;;;5035302;28;20037;-77
2022/12/30 05:37:38;;;;;;;11.15;3.28;;;;;;;;;;5035336;28;20075;-77
2022/12/30 05:40:05;;;;;;;15.40;4.07;;;;;;;;;;5035367;28;20061;-77
2022/12/30 05:42:31;;;;;;;15.13;3.67;;;;;;;;;;5035518;28;20400;-78
2022/12/30 05:44:57;;;;;;;17.40;3.78;;;;;;;;;;5035634;28;20456;-77
2022/12/30 05:47:23;;;;;;;18.38;3.55;;;;;;;;;;5035553;28;20029;-77
2022/12/30 05:49:49;;;;;;;15.00;4.72;;;;;;;;;;5035610;28;20032;-77
2022/12/30 05:52:15;;;;;;;17.38;4.32;;;;;;;;;;5017460;28;20061;-77
2022/12/30 05:54:42;;;;;;;12.93;3.25;;;;;;;;;;5034953;28;20026;-77
2022/12/30 05:57:08;;;;;;;15.70;3.40;;;;;;;;;;5035239;28;20353;-77
2022/12/30 05:59:34;;;;;;;14.90;3.20;;;;;;;;;;5035012;28;20047;-77
2022/12/30 06:02:00;;;;;;;12.45;2.78;;;;;;;;;;5035164;28;20060;-77
2022/12/30 06:04:26;;;;;;;15.18;2.90;;;;;;;;;;5035033;28;20499;-77
2022/12/30 06:06:52;;;;;;;13.00;3.03;;;;;;;;;;5034771;28;20033;-77
2022/12/30 06:09:19;;;;;;;11.70;2.78;;;;;;;;;;5034682;28;20029;-77
2022/12/30 06:11:44;;;;;;;10.80;2.90;;;;;;;;;;5034936;28;20029;-78
2022/12/30 06:14:12;;;;;;;15.10;2.80;;;;;;;;;;5034923;28;20037;-77
2022/12/30 06:16:38;;;;;;;10.43;2.80;;;;;;;;;;5034402;28;20025;-77
2022/12/30 06:19:04;;;;;;;10.15;2.25;;;;;;;;;;5034946;28;20406;-77
2022/12/30 06:21:30;;;;;;;15.15;2.67;;;;;;;;;;5034797;28;20080;-77
2022/12/30 06:23:56;;;;;;;10.85;2.25;;;;;;;;;;5034675;28;20388;-77
2022/12/30 06:26:22;;;;;;;16.65;3.08;;;;;;;;;;5034735;28;20503;-77
2022/12/30 06:28:48;;;;;;;13.18;3.78;;;;;;;;;;5035016;28;20080;-77
2022/12/30 06:31:14;;;;;;;9.40;3.40;;;;;;;;;;5034506;28;20022;-77
2022/12/30 06:33:40;;;;;;;15.57;2.90;;;;;;;;;;5034265;28;20472;-77
2022/12/30 06:36:06;;;;;;;11.18;3.13;;;;;;;;;;5034146;28;20053;-77
2022/12/30 06:38:32;;;;;;;8.00;2.80;;;;;;;;;;5034254;28;20025;-77
2022/12/30 06:40:58;;;;;;;15.10;2.80;;;;;;;;;;5034442;28;20083;-77
2022/12/30 06:43:24;;;;;;;14.70;3.00;;;;;;;;;;5034344;28;20096;-77
2022/12/30 06:45:50;;;;;;;10.40;2.97;;;;;;;;;;5035003;28;20431;-78
2022/12/30 06:48:16;;;;;;;11.45;3.10;;;;;;;;;;5034712;28;20065;-78
2022/12/30 06:50:42;;;;;;;11.45;2.88;;;;;;;;;;5016878;28;20029;-78
2022/12/30 06:53:08;;;;;;;10.90;3.00;;;;;;;;;;5034181;28;20026;-78
2022/12/30 06:55:34;;;;;;;6.25;2.60;;;;;;;;;;5033992;28;20079;-78
2022/12/30 06:58:00;;;;;;;15.13;2.53;;;;;;;;;;5034538;28;20021;-78
2022/12/30 07:00:27;;;;;;;13.07;2.50;;;;;;;;;;5034669;28;20609;-78
2022/12/30 07:02:53;;;;;;;13.73;3.10;;;;;;;;;;5035871;28;20452;-78
2022/12/30 07:05:19;;;;;;;14.07;3.45;;;;;;;;;;5035647;28;20032;-78
2022/12/30 07:07:45;;;;;;;9.18;3.22;;;;;;;;;;5034082;28;20506;-78
2022/12/30 07:10:11;;;;;;;12.90;3.33;;;;;;;;;;5034823;28;20036;-77
2022/12/30 07:12:37;;;;;;;8.77;3.90;;;;;;;;;;5033767;28;20026;-78
2022/12/30 07:15:03;;;;;;;10.15;2.72;;;;;;;;;;5033781;28;20453;-78
2022/12/30 07:17:29;;;;;;;11.55;2.63;;;;;;;;;;5033896;28;20021;-76
2022/12/30 07:19:55;;;;;;;16.40;3.28;;;;;;;;;;5033896;28;20453;-77
2022/12/30 07:22:21;;;;;;;9.68;2.70;;;;;;;;;;5033892;28;20021;-77
2022/12/30 07:24:47;;;;;;;9.43;2.72;;;;;;;;;;5033368;28;20022;-77
2022/12/30 07:27:13;;;;;;;11.38;2.83;;;;;;;;;;5033993;28;20033;-77
2022/12/30 07:29:39;;;;;;;13.95;3.03;;;;;;;;;;5037229;28;20090;-78
2022/12/30 07:32:06;;;;;;;13.52;2.88;;;;;;;;;;5037666;28;20105;-77
2022/12/30 07:34:34;;;;;;;10.48;2.53;;;;;;;;;;5037562;28;20041;-77
2022/12/30 07:37:00;;;;;;;7.60;2.40;;;;;;;;;;5037801;28;20457;-77
2022/12/30 07:39:26;;;;;;;7.00;2.30;;;;;;;;;;5037608;28;20030;-77
2022/12/30 07:41:52;;;;;;;11.00;3.10;;;;;;;;;;5037754;28;20099;-77
2022/12/30 07:44:18;;;;;;;11.60;2.95;;;;;;;;;;5037750;28;20032;-78
2022/12/30 07:46:44;;;;;;;14.90;3.47;;;;;;;;;;5037471;28;20065;-78
2022/12/30 07:49:10;;;;;;;10.60;3.22;;;;;;;;;;5037717;28;20030;-78
2022/12/30 07:51:36;;;;;;;11.52;2.67;;;;;;;;;;5037147;28;20341;-77
2022/12/30 07:54:02;;;;;;;12.95;3.03;;;;;;;;;;5037321;28;20057;-77
2022/12/30 07:56:28;;;;;;;11.63;2.92;;;;;;;;;;5037286;28;20083;-77
2022/12/30 07:58:54;;;;;;;16.83;3.63;;;;;;;;;;5037037;28;20061;-77
2022/12/30 08:01:20;;;;;;;13.15;2.90;;;;;;;;;;5036755;28;20098;-78
2022/12/30 08:03:47;;;;;;;10.05;2.50;;;;;;;;;;5037040;28;20104;-78
2022/12/30 08:06:14;;;;;;;14.25;3.20;;;;;;;;;;5037305;28;20037;-78
2022/12/30 08:08:40;;;;;;;9.85;3.25;;;;;;;;;;5030941;28;20060;-77
2022/12/30 08:11:06;;;;;;;13.90;2.72;;;;;;;;;;5020704;28;20133;-77
2022/12/30 08:13:33;;;;;;;8.90;2.65;;;;;;;;;;5016982;28;20034;-77
2022/12/30 08:16:02;;;;;;;11.10;3.20;;;;;;;;;;5019608;28;20034;-77
2022/12/30 08:18:28;;;;;;;8.50;3.63;;;;;;;;;;5030130;28;20057;-78
2022/12/30 08:20:54;;;;;;;8.75;2.58;;;;;;;;;;5033905;28;20026;-78
2022/12/30 08:23:20;;;;;;;10.95;2.67;;;;;;;;;;5036519;28;20030;-78
2022/12/30 08:25:46;;;;;;;4.93;1.70;;;;;;;;;;5036633;28;20453;-78
2022/12/30 08:28:12;;;;;;;8.40;2.08;;;;;;;;;;5036539;28;20038;-78
2022/12/30 08:30:39;;;;;;;7.13;2.05;;;;;;;;;;5029568;28;20022;-78
2022/12/30 08:33:05;;;;;;;10.82;2.13;;;;;;;;;;5030055;28;20025;-78
2022/12/30 08:35:31;;;;;;;7.90;2.33;;;;;;;;;;5016825;28;20028;-77
2022/12/30 08:37:57;;;;;;;9.88;2.08;;;;;;;;;;5016743;28;20129;-77
2022/12/30 08:40:23;;;;;;;9.98;2.55;;;;;;;;;;5016263;28;20052;-78
2022/12/30 08:42:49;;;;;;;13.45;3.47;;;;;;;;;;5016366;28;20473;-77
2022/12/30 08:45:15;;;;;;;11.27;2.63;;;;;;;;;;5019803;28;20026;-77
2022/12/30 08:47:41;;;;;;;10.02;2.47;;;;;;;;;;5035873;28;20029;-77
2022/12/30 08:50:07;;;;;;;15.90;2.70;;;;;;;;;;5036116;28;20040;-77
2022/12/30 08:52:33;;;;;;;12.63;2.58;;;;;;;;;;5036690;28;20034;-77
2022/12/30 08:54:59;;;;;;;10.45;1.95;;;;;;;;;;5036083;28;20392;-77
2022/12/30 08:57:25;;;;;;;7.65;2.58;;;;;;;;;;5036007;28;20049;-77
2022/12/30 08:59:51;;;;;;;12.65;2.28;;;;;;;;;;5035496;28;20056;-77
2022/12/30 09:02:17;;;;;;;10.23;2.40;;;;;;;;;;5035763;28;20029;-77
2022/12/30 09:04:43;;;;;;;10.05;2.55;;;;;;;;;;5025540;28;20037;-77
2022/12/30 09:07:09;;;;;;;9.75;2.35;;;;;;;;;;5016402;28;20073;-78
2022/12/30 09:09:36;;;;;;;12.73;2.63;;;;;;;;;;5016289;28;20465;-78
2022/12/30 09:12:02;;;;;;;8.07;2.38;;;;;;;;;;5020705;28;20579;-77
2022/12/30 09:14:28;;;;;;;8.50;2.42;;;;;;;;;;5031081;28;20026;-77
2022/12/30 09:16:54;;;;;;;16.63;3.47;;;;;;;;;;5016970;28;20030;-77
2022/12/30 09:19:21;;;;;;;19.38;5.80;;;;;;;;;;5015954;28;20361;-77
2022/12/30 09:21:47;;;;;;;9.23;3.08;;;;;;;;;;5015783;28;20026;-77
2022/12/30 09:24:13;;;;;;;14.40;2.95;;;;;;;;;;5015826;28;20030;-77
2022/12/30 09:26:39;;;;;;;11.63;2.55;;;;;;;;;;5015725;28;20030;-77
2022/12/30 09:29:05;;;;;;;6.03;2.40;;;;;;;;;;5015852;28;20030;-77
2022/12/30 09:31:31;;;;;;;11.68;2.72;;;;;;;;;;5016328;28;20088;-77
2022/12/30 09:33:57;;;;;;;9.98;2.15;;;;;;;;;;5015942;28;20026;-77
2022/12/30 09:36:23;;;;;;;12.93;2.80;;;;;;;;;;4998495;28;20552;-77
2022/12/30 09:38:49;;;;;;;10.82;2.53;;;;;;;;;;5034964;28;20122;-77
2022/12/30 09:41:18;;;;;;;13.38;2.90;;;;;;;;;;5035614;28;20029;-77
2022/12/30 09:43:56;;;;;;;12.15;2.78;;;;;;;;;;5035693;28;20025;-77
2022/12/30 09:46:36;;;;;;;12.63;2.30;;;;;;;;;;5035667;28;20032;-77
2022/12/30 09:49:03;;;;;;;14.48;3.00;;;;;;;;;;5034008;28;20112;-77
2022/12/30 09:51:31;;;;;;;7.95;2.60;;;;;;;;;;5015005;28;20022;-77
2022/12/30 09:54:03;;;;;;;8.70;2.10;;;;;;;;;;5016556;28;20025;-77
2022/12/30 09:56:32;;;;;;;8.00;2.33;;;;;;;;;;5016704;28;20026;-77
2022/12/30 09:59:04;;;;;;;7.20;2.53;;;;;;;;;;5014880;28;20046;-77
2022/12/30 10:01:39;;;;;;;7.55;2.22;;;;;;;;;;5015343;28;20105;-77
2022/12/30 10:04:05;;;;;;;10.27;2.20;;;;;;;;;;5016708;28;20041;-77
2022/12/30 10:06:39;;;;;;;6.18;2.35;;;;;;;;;;5015483;28;20036;-77
2022/12/30 10:09:24;;;;;;;7.28;2.25;;;;;;;;;;5015347;28;20033;-77
2022/12/30 10:11:49;;;;;;;6.80;2.53;;;;;;;;;;5015211;28;20029;-77
2022/12/30 10:14:21;;;;;;;6.63;2.17;;;;;;;;;;5015256;28;20033;-77
2022/12/30 10:16:50;;;;;;;6.82;2.03;;;;;;;;;;5034428;28;20033;-78
2022/12/30 10:19:16;;;;;;;8.95;1.90;;;;;;;;;;5034991;28;20453;-77
2022/12/30 10:21:45;;;;;;;10.40;2.15;;;;;;;;;;5034385;28;20085;-78
2022/12/30 10:24:27;;;;;;;8.18;2.13;;;;;;;;;;5034218;28;20029;-78
2022/12/30 10:26:54;;;;;;;14.23;2.10;;;;;;;;;;5016662;28;20033;-77
2022/12/30 10:29:31;;;;;;;6.28;2.05;;;;;;;;;;5034630;28;20113;-77
2022/12/30 10:31:58;;;;;;;12.15;2.40;;;;;;;;;;5035258;28;20044;-77
2022/12/30 10:34:31;;;;;;;12.73;2.90;;;;;;;;;;5034495;28;20029;-77
2022/12/30 10:37:00;;;;;;;7.82;2.40;;;;;;;;;;5035452;28;20075;-77
2022/12/30 10:39:30;;;;;;;10.38;2.20;;;;;;;;;;5036522;28;20105;-77
2022/12/30 10:42:03;;;;;;;6.40;2.08;;;;;;;;;;5035051;28;20049;-77
2022/12/30 10:44:33;;;;;;;7.00;2.45;;;;;;;;;;5034394;28;20464;-77
2022/12/30 10:47:04;;;;;;;9.73;2.40;;;;;;;;;;5034096;28;20060;-77
2022/12/30 10:49:30;;;;;;;6.38;1.75;;;;;;;;;;5033991;28;20083;-77
2022/12/30 10:51:57;;;;;;;6.38;1.95;;;;;;;;;;5033875;28;20100;-77
2022/12/30 10:54:23;;;;;;;5.07;2.08;;;;;;;;;;5016470;28;20029;-77
2022/12/30 10:56:49;;;;;;;7.43;1.80;;;;;;;;;;5016146;28;20033;-77
2022/12/30 10:59:18;;;;;;;6.72;2.05;;;;;;;;;;5034345;28;20050;-77
2022/12/30 11:01:45;;;;;;;6.68;1.98;;;;;;;;;;5034128;28;20029;-77
2022/12/30 11:04:30;;;;;;;7.55;2.10;;;;;;;;;;5033995;28;20021;-77
2022/12/30 11:07:01;;;;;;;4.72;1.70;;;;;;;;;;5033662;28;20528;-77
2022/12/30 11:09:27;;;;;;;5.75;2.03;;;;;;;;;;5033841;28;20503;-77
2022/12/30 11:14:43;;;;;;;12.18;5.80;;;;;;;;;;5034171;28;20036;-77
2022/12/30 11:17:30;;;;;;;3.88;2.05;;;;;;;;;;5033875;28;20018;-77
2022/12/30 11:19:58;;;;;;;5.88;1.60;;;;;;;;;;5015995;28;20036;-77
2022/12/30 11:22:25;;;;;;;5.82;1.90;;;;;;;;;;5033623;28;20045;-77
2022/12/30 11:24:59;;;;;;;2.67;1.30;;;;;;;;;;5034001;28;20061;-77
2022/12/30 11:27:32;;;;;;;3.92;1.70;;;;;;;;;;5013727;28;20030;-77
2022/12/30 11:29:58;;;;;;;8.15;1.90;;;;;;;;;;5013900;28;20389;-77
2022/12/30 11:32:24;;;;;;;2.92;1.30;;;;;;;;;;5033623;28;20033;-77
2022/12/30 11:34:50;;;;;;;4.40;1.60;;;;;;;;;;5016011;28;20049;-77
2022/12/30 11:37:31;;;;;;;6.28;2.60;;;;;;;;;;5033507;28;20025;-77
2022/12/30 11:39:58;;;;;;;4.25;1.90;;;;;;;;;;5032581;28;20029;-77
2022/12/30 11:42:31;;;;;;;7.45;1.48;;;;;;;;;;5016910;28;20028;-77
2022/12/30 11:45:17;;;;;;;7.82;1.40;;;;;;;;;;4996530;28;20033;-77
2022/12/30 11:47:43;;;;;;;6.63;1.48;;;;;;;;;;5013898;28;20137;-77
2022/12/30 11:50:14;;;;;;;3.83;1.23;;;;;;;;;;5013671;28;20022;-77
2022/12/30 11:52:40;;;;;;;6.32;1.23;;;;;;;;;;5013937;28;20034;-77
2022/12/30 11:55:18;;;;;;;4.47;1.20;;;;;;;;;;5013758;28;20037;-77
2022/12/30 11:57:47;;;;;;;5.32;1.17;;;;;;;;;;5017919;28;20467;-77
2022/12/30 12:00:14;;;;;;;4.10;1.30;;;;;;;;;;5033297;28;20054;-77
2022/12/30 12:02:41;;;;;;;2.95;1.00;;;;;;;;;;5033522;28;20021;-77
2022/12/30 12:05:22;;;;;;;3.58;1.00;;;;;;;;;;5033311;28;20026;-77
2022/12/30 12:07:50;;;;;;;3.60;1.02;;;;;;;;;;5033361;28;20080;-77
2022/12/30 12:10:19;;;;;;;4.38;0.85;;;;;;;;;;5033532;28;20033;-77
2022/12/30 12:12:51;;;;;;;3.38;1.00;;;;;;;;;;5033971;28;20080;-77
2022/12/30 12:15:23;;;;;;;2.78;1.02;;;;;;;;;;5036370;28;20036;-77
2022/12/30 12:17:55;;;;;;;4.90;1.02;;;;;;;;;;5036917;28;20030;-78
2022/12/30 12:20:26;;;;;;;4.97;1.38;;;;;;;;;;5037695;28;20033;-77
2022/12/30 12:23:00;;;;;;;4.60;0.90;;;;;;;;;;5037565;28;20022;-78
2022/12/30 12:25:33;;;;;;;5.00;0.88;;;;;;;;;;5019524;28;20029;-77
2022/12/30 12:27:59;;;;;;;4.30;1.10;;;;;;;;;;5036887;28;20017;-78
2022/12/30 12:30:27;;;;;;;3.30;1.00;;;;;;;;;;5042778;28;20021;-78
2022/12/30 12:33:25;;;;;;;3.25;0.95;;;;;;;;;;5042484;28;20164;-78
2022/12/30 12:35:58;;;;;;;3.55;1.20;;;;;;;;;;4998857;28;20033;-78
2022/12/30 12:38:33;;;;;;;3.67;1.00;;;;;;;;;;5041673;28;20112;-78
2022/12/30 12:40:59;;;;;;;4.13;1.00;;;;;;;;;;5038769;28;20465;-78
2022/12/30 12:43:37;;;;;;;6.07;1.65;;;;;;;;;;5024777;28;20080;-78
2022/12/30 12:46:08;;;;;;;6.95;1.00;;;;;;;;;;5021135;28;20034;-78
2022/12/30 12:48:53;;;;;;;4.00;0.95;;;;;;;;;;5017647;28;20720;-78
2022/12/30 12:51:25;;;;;;;5.20;1.70;;;;;;;;;;5017963;28;20029;-78
2022/12/30 12:54:00;;;;;;;4.25;1.10;;;;;;;;;;5017806;28;20034;-78
2022/12/30 12:56:39;;;;;;;4.18;1.00;;;;;;;;;;5001293;28;20026;-78
2022/12/30 12:59:23;;;;;;;6.57;1.45;;;;;;;;;;5040614;28;20056;-78
2022/12/30 13:01:52;;;;;;;5.43;1.30;;;;;;;;;;5037136;28;20025;-79
2022/12/30 13:04:28;;;;;;;3.90;0.90;;;;;;;;;;5033903;28;20460;-78
2022/12/30 13:07:02;;;;;;;5.50;1.30;;;;;;;;;;5036347;28;20095;-78
2022/12/30 13:09:36;;;;;;;2.90;0.90;;;;;;;;;;5023228;28;20021;-78
2022/12/30 13:12:12;;;;;;;1.55;0.80;;;;;;;;;;5036776;28;20412;-78
2022/12/30 13:14:47;;;;;;;5.30;1.25;;;;;;;;;;5006786;28;20091;-78
2022/12/30 13:17:27;;;;;;;3.38;1.05;;;;;;;;;;5036222;28;20112;-78
2022/12/30 13:19:55;;;;;;;7.07;1.17;;;;;;;;;;5036647;28;20033;-77
2022/12/30 13:22:23;;;;;;;3.60;1.00;;;;;;;;;;5036181;28;20063;-77
2022/12/30 13:24:50;;;;;;;6.15;0.85;;;;;;;;;;5029114;28;20022;-77
2022/12/30 13:27:24;;;;;;;7.65;0.90;;;;;;;;;;5016130;28;20018;-77
2022/12/30 13:29:51;;;;;;;3.50;0.77;;;;;;;;;;5023046;28;20112;-78
2022/12/30 13:32:23;;;;;;;3.45;1.08;;;;;;;;;;5016574;28;20417;-78
2022/12/30 13:34:53;;;;;;;5.07;1.23;;;;;;;;;;5023458;28;20380;-78
2022/12/30 13:37:31;;;;;;;3.15;1.67;;;;;;;;;;5032381;28;20468;-78
2022/12/30 13:40:05;;;;;;;4.82;1.00;;;;;;;;;;5017987;28;20057;-77
2022/12/30 13:42:39;;;;;;;2.80;1.30;;;;;;;;;;5036116;28;20353;-77
2022/12/30 13:45:24;;;;;;;4.88;1.70;;;;;;;;;;5035969;28;20357;-77
2022/12/30 13:47:56;;;;;;;4.38;0.80;;;;;;;;;;5035344;28;20108;-77
2022/12/30 13:50:24;;;;;;;8.07;2.22;;;;;;;;;;5035101;28;20128;-77
2022/12/30 13:52:52;;;;;;;5.20;2.05;;;;;;;;;;5034973;28;20102;-77
2022/12/30 13:55:29;;;;;;;6.15;1.17;;;;;;;;;;5035209;28;20100;-77
2022/12/30 13:58:01;;;;;;;2.83;1.30;;;;;;;;;;5031364;28;20033;-77
2022/12/30 14:00:41;;;;;;;3.75;1.00;;;;;;;;;;5021325;28;20049;-77
2022/12/30 14:03:25;;;;;;;4.15;0.73;;;;;;;;;;5028406;28;20101;-77
2022/12/30 14:05:55;;;;;;;4.85;0.98;;;;;;;;;;5014942;28;20034;-77
2022/12/30 14:08:27;;;;;;;5.00;1.20;;;;;;;;;;5015229;28;20460;-77
2022/12/30 14:11:02;;;;;;;6.05;1.08;;;;;;;;;;5020562;28;20025;-77
2022/12/30 14:13:31;;;;;;;3.35;1.08;;;;;;;;;;5021598;28;20026;-77
2022/12/30 14:16:17;;;;;;;6.88;1.10;;;;;;;;;;5034486;28;20022;-77
2022/12/30 14:18:46;;;;;;;7.32;0.90;;;;;;;;;;5020955;28;20042;-77
2022/12/30 14:21:20;;;;;;;2.80;0.70;;;;;;;;;;5034121;28;20468;-78
2022/12/30 14:23:52;;;;;;;4.57;0.77;;;;;;;;;;5038213;28;20036;-77
2022/12/30 14:26:20;;;;;;;6.68;1.13;;;;;;;;;;5022641;28;20088;-78
2022/12/30 14:28:49;;;;;;;3.33;0.95;;;;;;;;;;5033411;28;20108;-78
2022/12/30 14:31:35;;;;;;;4.97;0.98;;;;;;;;;;5039373;28;20053;-78
2022/12/30 14:34:02;;;;;;;3.22;0.70;;;;;;;;;;5028405;28;20533;-78
2022/12/30 14:36:32;;;;;;;6.07;0.88;;;;;;;;;;5018700;28;20186;-78
2022/12/30 14:39:03;;;;;;;4.05;0.77;;;;;;;;;;5031588;28;20538;-78
2022/12/30 14:41:35;;;;;;;2.72;1.00;;;;;;;;;;5021614;28;20071;-78
2022/12/30 14:44:03;;;;;;;3.33;0.82;;;;;;;;;;5039552;28;20037;-78
2022/12/30 14:46:32;;;;;;;3.30;0.80;;;;;;;;;;5022936;28;20037;-78
2022/12/30 14:48:58;;;;;;;5.53;0.82;;;;;;;;;;5009286;28;20074;-78
2022/12/30 14:51:25;;;;;;;2.38;0.70;;;;;;;;;;5022494;28;20080;-78
2022/12/30 14:53:51;;;;;;;2.10;0.80;;;;;;;;;;5035266;28;20040;-79
2022/12/30 14:56:17;;;;;;;3.08;0.73;;;;;;;;;;5036521;28;20033;-78
2022/12/30 14:58:43;;;;;;;1.63;0.88;;;;;;;;;;5018293;28;20468;-78
2022/12/30 15:01:13;;;;;;;4.53;1.45;;;;;;;;;;5023462;28;20017;-78
2022/12/30 15:03:39;;;;;;;2.95;1.13;;;;;;;;;;5033103;28;20022;-77
2022/12/30 15:06:05;;;;;;;3.53;0.70;;;;;;;;;;5033075;28;20069;-78
2022/12/30 15:08:34;;;;;;;4.15;0.98;;;;;;;;;;5033531;28;20025;-78
2022/12/30 15:11:02;;;;;;;1.55;0.80;;;;;;;;;;5033635;28;20056;-78
2022/12/30 15:13:30;;;;;;;1.75;0.63;;;;;;;;;;5022344;28;20018;-78
2022/12/30 15:15:56;;;;;;;4.65;1.00;;;;;;;;;;5013748;28;20033;-78
2022/12/30 15:18:25;;;;;;;1.48;0.80;;;;;;;;;;5028426;28;20021;-78
2022/12/30 15:20:51;;;;;;;3.90;0.90;;;;;;;;;;5028779;28;20088;-78
2022/12/30 15:23:18;;;;;;;1.50;0.90;;;;;;;;;;5023330;28;20041;-78
2022/12/30 15:25:54;;;;;;;2.47;0.90;;;;;;;;;;5026975;28;20022;-78
2022/12/30 15:28:20;;;;;;;2.22;1.10;;;;;;;;;;5028907;28;20063;-78
2022/12/30 15:30:49;;;;;;;2.42;1.00;;;;;;;;;;5029878;28;20387;-78
2022/12/30 15:33:15;;;;;;;2.03;0.88;;;;;;;;;;5017463;28;20097;-78
2022/12/30 15:35:41;;;;;;;3.08;0.95;;;;;;;;;;5033408;28;20021;-78
2022/12/30 15:38:16;;;;;;;1.85;0.80;;;;;;;;;;5013146;28;20504;-78